Bell Center, Wisconsin
Current Conditions -  °F | °C
As of 9:53 PM on Saturday 22 Nov 2014 (Local Time) from KOVS Reporting Station
Haze Haze  
Wind Chill: 52°   Ceiling: 700
Heat Index: 52°   Visibility: 5mi
Dew Point: 50°   Wind: 8mph
Humidity: 93%   Direction: 190°S
Pressure: 29.71"   Gusts: NA
Location:  43.2876°N, 90.8505°W
Report Text: KOVS 230353Z AUTO 19007KT 5SM BR OVC007 11/10 A2971 RMK AO2 CIG 006V011 SLP065 T01110100
Loading
Personal Weather Stations






























Interactive Weather Map New forecast layout! Learn more

10-Day Weather Forecast

Advertisements
Track Severe Weather on mobile